Time;durP1;ratioP1;P1;durP2;ratioP2;P2;SDS_P1;SDS_P2;PMS_P1;PMS_P2;Temp;Humidity;BMP_temperature;BMP_pressure;BME280_temperature;BME280_humidity;BME280_pressure;Samples;Min_cycle;Max_cycle;Signal;HPM_P1;HPM_P2
2022/10/15 00:01:28;;;;;;;5.60;3.55;;;17.20;99.90;;;;;;5084276;28;20403;-72
2022/10/15 00:03:55;;;;;;;5.78;3.13;;;17.20;99.90;;;;;;5066730;28;20044;-74
2022/10/15 00:06:23;;;;;;;4.95;3.65;;;17.10;99.90;;;;;;5084105;28;20036;-73
2022/10/15 00:08:50;;;;;;;3.95;3.10;;;17.10;99.90;;;;;;5084151;28;20048;-75
2022/10/15 00:11:22;;;;;;;5.22;3.78;;;17.10;99.90;;;;;;5069006;28;20073;-71
2022/10/15 00:13:51;;;;;;;6.57;3.17;;;17.10;99.90;;;;;;5087597;28;20048;-73
2022/10/15 00:16:22;;;;;;;7.45;3.38;;;17.00;99.90;;;;;;5088420;28;20136;-71
2022/10/15 00:18:50;;;;;;;7.32;4.07;;;17.00;99.90;;;;;;5086896;28;20047;-71
2022/10/15 00:21:21;;;;;;;5.22;3.35;;;17.00;99.90;;;;;;5088101;28;20032;-71
2022/10/15 00:23:49;;;;;;;5.13;3.13;;;17.00;99.90;;;;;;5086698;28;20052;-71
2022/10/15 00:26:19;;;;;;;6.93;4.07;;;17.00;99.90;;;;;;5086098;28;20517;-76
2022/10/15 00:28:49;;;;;;;5.95;4.45;;;17.00;99.90;;;;;;5085668;28;20413;-71
2022/10/15 00:31:25;;;;;;;4.60;3.28;;;17.00;99.90;;;;;;5067752;28;20052;-71
2022/10/15 00:33:54;;;;;;;5.70;3.80;;;17.10;99.90;;;;;;5085555;28;20103;-72
2022/10/15 00:36:35;;;;;;;5.25;3.47;;;17.10;99.90;;;;;;5085401;28;20071;-74
2022/10/15 00:39:06;;;;;;;5.25;3.33;;;17.10;99.90;;;;;;5087323;28;20067;-70
2022/10/15 00:41:39;;;;;;;7.65;3.67;;;17.10;99.90;;;;;;5085163;28;20369;-70
2022/10/15 00:44:24;;;;;;;8.25;4.13;;;17.10;99.90;;;;;;5086010;28;20048;-73
2022/10/15 00:46:53;;;;;;;;;;;17.10;99.90;;;;;;5068836;28;20058;-71
2022/10/15 00:49:27;;;;;;;5.05;3.28;;;17.10;99.90;;;;;;5067630;28;19967;-73
2022/10/15 00:51:59;;;;;;;6.30;3.70;;;17.10;99.90;;;;;;5085596;28;20040;-71
2022/10/15 00:54:33;;;;;;;9.20;4.07;;;17.10;99.90;;;;;;5068220;28;20043;-72
2022/10/15 00:57:01;;;;;;;6.78;4.30;;;17.10;99.90;;;;;;5052511;28;20044;-71
2022/10/15 00:59:30;;;;;;;5.85;3.67;;;17.10;99.90;;;;;;5068218;28;20055;-74
2022/10/15 01:02:00;;;;;;;5.70;3.97;;;17.10;99.90;;;;;;5085813;28;20259;-72
2022/10/15 01:04:29;;;;;;;5.63;3.60;;;17.00;99.90;;;;;;5051555;28;20504;-72
2022/10/15 01:06:57;;;;;;;6.22;3.50;;;17.00;99.90;;;;;;5087567;28;20123;-75
2022/10/15 01:09:25;;;;;;;7.00;4.70;;;17.00;99.90;;;;;;5068790;28;20544;-74
2022/10/15 01:11:54;;;;;;;6.93;3.92;;;17.00;99.90;;;;;;5084644;28;20044;-72
2022/10/15 01:14:35;;;;;;;6.07;4.20;;;17.00;99.90;;;;;;5085226;28;20046;-72
2022/10/15 01:17:28;;;;;;;7.13;3.75;;;17.00;99.90;;;;;;5051949;28;20351;-72
2022/10/15 01:20:04;;;;;;;6.32;3.28;;;17.00;99.90;;;;;;5050805;28;20056;-73
2022/10/15 01:22:37;;;;;;;10.05;3.63;;;17.00;99.90;;;;;;5067344;28;20101;-74
2022/10/15 01:25:38;;;;;;;6.72;3.13;;;17.00;99.90;;;;;;5051804;28;20098;-74
2022/10/15 01:28:11;;;;;;;7.80;3.70;;;17.00;99.90;;;;;;5084621;28;20066;-72
2022/10/15 01:30:47;;;;;;;6.47;3.28;;;17.00;99.90;;;;;;5052084;28;20063;-72
2022/10/15 01:33:40;;;;;;;8.75;3.70;;;16.90;99.90;;;;;;5084369;28;20567;-71
2022/10/15 01:36:13;;;;;;;5.50;3.70;;;16.90;99.90;;;;;;5084949;28;20048;-74
2022/10/15 01:39:13;;;;;;;5.40;3.83;;;16.90;99.90;;;;;;5050981;28;20048;-72
2022/10/15 01:41:51;;;;;;;4.70;4.10;;;16.90;99.90;;;;;;5068294;28;20056;-72
2022/10/15 01:44:45;;;;;;;7.72;3.40;;;16.80;99.90;;;;;;5068219;28;20113;-71
2022/10/15 01:47:48;;;;;;;6.55;3.95;;;16.80;99.90;;;;;;5069907;28;20052;-74
2022/10/15 01:50:21;;;;;;;5.78;3.90;;;16.80;99.90;;;;;;5084397;28;20044;-77
2022/10/15 01:52:50;;;;;;;5.75;3.90;;;16.80;99.90;;;;;;5068452;28;20044;-74
2022/10/15 01:55:20;;;;;;;6.10;3.72;;;16.80;99.90;;;;;;5068612;28;20076;-74
2022/10/15 01:57:49;;;;;;;7.88;3.95;;;16.80;99.90;;;;;;5067963;28;20036;-73
2022/10/15 02:00:17;;;;;;;5.72;3.55;;;16.80;99.90;;;;;;5085020;28;20036;-71
2022/10/15 02:02:45;;;;;;;4.95;3.53;;;16.70;99.90;;;;;;5066948;28;20040;-72
2022/10/15 02:05:21;;;;;;;14.55;4.13;;;16.80;99.90;;;;;;5083503;28;20116;-74
2022/10/15 02:08:36;;;;;;;6.97;3.67;;;16.80;99.90;;;;;;5067583;28;20043;-74
2022/10/15 02:11:10;;;;;;;4.63;3.33;;;16.70;99.90;;;;;;5084193;28;20351;-73
2022/10/15 02:14:10;;;;;;;12.73;3.92;;;16.70;99.90;;;;;;5086640;28;20048;-71
2022/10/15 02:16:54;;;;;;;6.57;3.30;;;16.70;99.90;;;;;;5084726;28;20058;-73
2022/10/15 02:19:40;;;;;;;5.07;3.80;;;16.60;99.90;;;;;;5084845;28;20172;-73
2022/10/15 02:22:23;;;;;;;10.65;3.58;;;16.60;99.90;;;;;;5067871;28;20051;-72
2022/10/15 02:25:15;;;;;;;5.45;3.90;;;16.60;99.90;;;;;;5086154;28;20040;-72
2022/10/15 02:27:48;;;;;;;6.60;3.80;;;16.60;99.90;;;;;;5084006;28;20054;-74
2022/10/15 02:30:16;;;;;;;4.32;3.17;;;16.60;99.90;;;;;;5066746;28;20048;-72
2022/10/15 02:32:52;;;;;;;4.85;3.10;;;16.60;99.90;;;;;;5066179;28;20148;-74
2022/10/15 02:35:22;;;;;;;5.30;3.85;;;16.50;99.90;;;;;;5084118;28;20050;-72
2022/10/15 02:37:52;;;;;;;5.43;3.00;;;16.60;99.90;;;;;;5084319;28;20123;-73
2022/10/15 02:40:26;;;;;;;5.88;3.03;;;16.50;99.90;;;;;;5086452;28;20773;-71
2022/10/15 02:42:55;;;;;;;5.15;3.15;;;16.50;99.90;;;;;;5083854;28;20509;-74
2022/10/15 02:45:22;;;;;;;6.38;3.53;;;16.50;99.90;;;;;;5083601;28;20581;-73
2022/10/15 02:47:50;;;;;;;5.88;4.10;;;16.50;99.90;;;;;;5082860;28;20036;-75
2022/10/15 02:50:18;;;;;;;4.82;3.40;;;16.50;99.90;;;;;;5067303;28;20047;-71
2022/10/15 02:52:46;;;;;;;6.78;2.92;;;16.40;99.90;;;;;;5083178;28;20048;-72
2022/10/15 02:55:13;;;;;;;4.47;3.42;;;16.40;99.90;;;;;;5084086;28;20091;-74
2022/10/15 02:57:43;;;;;;;6.18;3.97;;;16.40;99.90;;;;;;5083088;28;20044;-75
2022/10/15 03:00:12;;;;;;;6.28;4.30;;;16.40;99.90;;;;;;5050062;28;20056;-71
2022/10/15 03:02:40;;;;;;;6.85;4.40;;;16.40;99.90;;;;;;5066196;28;20520;-71
2022/10/15 03:05:08;;;;;;;4.53;3.15;;;16.50;99.90;;;;;;5083171;28;20048;-74
2022/10/15 03:07:36;;;;;;;7.63;3.40;;;16.50;99.90;;;;;;5083355;28;20143;-72
2022/10/15 03:10:05;;;;;;;5.10;3.03;;;16.50;99.90;;;;;;5066965;28;20043;-75
2022/10/15 03:12:34;;;;;;;6.55;3.42;;;16.40;99.90;;;;;;5083873;28;20037;-74
2022/10/15 03:15:05;;;;;;;5.90;3.70;;;16.40;99.90;;;;;;5066873;28;20043;-73
2022/10/15 03:17:34;;;;;;;5.85;3.67;;;16.50;99.90;;;;;;5049152;28;20044;-72
2022/10/15 03:20:05;;;;;;;5.88;3.78;;;16.50;99.90;;;;;;5082888;28;20032;-72
2022/10/15 03:22:36;;;;;;;6.65;4.10;;;16.50;99.90;;;;;;5049442;28;20235;-74
2022/10/15 03:25:04;;;;;;;4.88;3.33;;;16.50;99.90;;;;;;5083055;28;20040;-74
2022/10/15 03:27:33;;;;;;;5.40;3.60;;;16.50;99.90;;;;;;5049899;28;20687;-73
2022/10/15 03:30:00;;;;;;;5.85;4.07;;;16.50;99.90;;;;;;5065558;28;20076;-71
2022/10/15 03:32:32;;;;;;;6.47;3.83;;;16.60;99.90;;;;;;5049395;28;20047;-71
2022/10/15 03:35:01;;;;;;;7.38;3.38;;;16.60;99.90;;;;;;5066721;28;20060;-72
2022/10/15 03:37:28;;;;;;;7.88;4.20;;;16.50;99.90;;;;;;5083266;28;20186;-74
2022/10/15 03:39:56;;;;;;;6.53;3.75;;;16.60;99.90;;;;;;5049562;28;20454;-71
2022/10/15 03:42:26;;;;;;;5.28;3.15;;;16.60;99.90;;;;;;5065858;28;20138;-71
2022/10/15 03:44:54;;;;;;;6.18;3.97;;;16.50;99.90;;;;;;5064489;28;20048;-74
2022/10/15 03:47:22;;;;;;;6.15;3.63;;;16.50;99.90;;;;;;5065296;28;20072;-72
2022/10/15 03:49:50;;;;;;;4.47;3.67;;;16.60;99.90;;;;;;5082158;28;20068;-71
2022/10/15 03:52:19;;;;;;;10.30;3.70;;;16.50;99.90;;;;;;5065862;28;20047;-74
2022/10/15 03:54:47;;;;;;;5.75;3.75;;;16.50;99.90;;;;;;5082741;28;20417;-72
2022/10/15 03:57:19;;;;;;;5.75;3.80;;;16.50;99.90;;;;;;5066551;28;20047;-72
2022/10/15 03:59:52;;;;;;;8.38;3.65;;;16.50;99.90;;;;;;5083043;28;20150;-73
2022/10/15 04:02:23;;;;;;;4.53;3.35;;;16.50;99.90;;;;;;5082803;28;20142;-72
2022/10/15 04:04:52;;;;;;;8.93;4.18;;;16.50;99.90;;;;;;5049934;28;20052;-71
2022/10/15 04:07:20;;;;;;;6.30;3.83;;;16.50;99.90;;;;;;5065592;28;20488;-73
2022/10/15 04:09:48;;;;;;;7.32;3.70;;;16.50;99.90;;;;;;5065366;28;20050;-75
2022/10/15 04:12:38;;;;;;;7.20;3.78;;;16.50;99.90;;;;;;5051956;28;20469;-73
2022/10/15 04:15:07;;;;;;;6.85;4.10;;;16.50;99.90;;;;;;5066371;28;20048;-72
2022/10/15 04:17:38;;;;;;;6.13;3.63;;;16.50;99.90;;;;;;5067220;28;20073;-71
2022/10/15 04:20:07;;;;;;;5.97;3.25;;;16.40;99.90;;;;;;5082923;28;20066;-71
2022/10/15 04:22:36;;;;;;;7.32;4.03;;;16.40;99.90;;;;;;5066656;28;20208;-71
2022/10/15 04:25:06;;;;;;;5.40;3.28;;;16.40;99.90;;;;;;5049714;28;20425;-71
2022/10/15 04:27:34;;;;;;;5.32;3.67;;;16.40;99.90;;;;;;5065083;28;20063;-72
2022/10/15 04:30:09;;;;;;;6.22;4.72;;;16.40;99.90;;;;;;5064594;28;20047;-71
2022/10/15 04:32:41;;;;;;;10.82;4.78;;;16.40;99.90;;;;;;5081054;28;20065;-74
2022/10/15 04:35:10;;;;;;;6.43;3.47;;;16.40;99.90;;;;;;5082630;28;20047;-72
2022/10/15 04:38:07;;;;;;;5.72;3.70;;;16.40;99.90;;;;;;5076088;28;20051;-72
2022/10/15 04:41:06;;;;;;;7.03;3.67;;;16.40;99.90;;;;;;5084573;28;20356;-74
2022/10/15 04:43:54;;;;;;;7.82;3.80;;;16.30;99.90;;;;;;5082120;28;20060;-73
2022/10/15 04:46:22;;;;;;;6.35;4.60;;;16.40;99.90;;;;;;5082966;28;20044;-71
2022/10/15 04:48:56;;;;;;;6.70;3.67;;;16.40;99.90;;;;;;5081949;28;20048;-74
2022/10/15 04:51:25;;;;;;;5.88;3.55;;;16.40;99.90;;;;;;5081980;28;20112;-73
2022/10/15 04:54:22;;;;;;;7.22;4.00;;;16.40;99.90;;;;;;5074143;28;20539;-73
2022/10/15 04:57:02;;;;;;;6.00;3.72;;;16.30;99.90;;;;;;5068406;28;20036;-72
2022/10/15 04:59:30;;;;;;;4.00;3.13;;;16.30;99.90;;;;;;5051247;28;20108;-74
2022/10/15 05:02:20;;;;;;;9.88;4.60;;;16.30;99.90;;;;;;5086322;28;20052;-73
2022/10/15 05:04:53;;;;;;;6.22;3.67;;;16.30;99.90;;;;;;5085574;28;20052;-74
2022/10/15 05:07:22;;;;;;;5.75;4.15;;;16.30;99.90;;;;;;5068816;28;20139;-71
2022/10/15 05:09:51;;;;;;;5.10;3.72;;;16.30;99.90;;;;;;5053394;28;20087;-73
2022/10/15 05:12:19;;;;;;;9.27;5.05;;;16.30;99.90;;;;;;5085652;28;20119;-74
2022/10/15 05:14:47;;;;;;;5.80;3.53;;;16.40;99.90;;;;;;5086542;28;20048;-74
2022/10/15 05:17:21;;;;;;;6.20;4.35;;;16.40;99.90;;;;;;5068610;28;20036;-72
2022/10/15 05:19:49;;;;;;;6.35;3.40;;;16.50;99.90;;;;;;5067729;28;20165;-73
2022/10/15 05:22:20;;;;;;;3.90;2.97;;;16.70;99.90;;;;;;5084571;28;20036;-72
2022/10/15 05:24:52;;;;;;;4.97;3.22;;;16.80;99.90;;;;;;5066915;28;20051;-73
2022/10/15 05:27:34;;;;;;;4.97;2.67;;;17.00;99.90;;;;;;5066659;28;20058;-73
2022/10/15 05:30:04;;;;;;;4.38;3.03;;;17.10;99.90;;;;;;5050685;28;20137;-72
2022/10/15 05:32:41;;;;;;;5.15;3.63;;;17.30;99.90;;;;;;5084217;28;20093;-71
2022/10/15 05:35:11;;;;;;;4.90;2.88;;;17.50;99.90;;;;;;5051512;28;20056;-71
2022/10/15 05:37:54;;;;;;;6.03;2.83;;;17.60;99.90;;;;;;5085757;28;20044;-71
2022/10/15 05:40:23;;;;;;;6.25;4.05;;;17.80;99.90;;;;;;5083973;28;20075;-73
2022/10/15 05:43:03;;;;;;;9.15;3.28;;;18.00;99.90;;;;;;5052695;28;20071;-71
2022/10/15 05:45:31;;;;;;;5.15;3.20;;;18.20;99.90;;;;;;5049961;28;20063;-74
2022/10/15 05:48:04;;;;;;;4.68;3.28;;;18.30;99.90;;;;;;5083416;28;20152;-72
2022/10/15 05:50:32;;;;;;;3.95;2.97;;;18.50;99.90;;;;;;5048865;28;20078;-73
2022/10/15 05:53:01;;;;;;;4.75;2.75;;;18.70;99.90;;;;;;5066976;28;20048;-74
2022/10/15 05:55:36;;;;;;;4.43;3.08;;;18.80;99.90;;;;;;5084953;28;20074;-71
2022/10/15 05:58:04;;;;;;;7.38;2.63;;;19.00;99.90;;;;;;5084239;28;20090;-74
2022/10/15 06:00:32;;;;;;;5.18;3.10;;;19.20;99.90;;;;;;5084245;28;20115;-71
2022/10/15 06:03:00;;;;;;;5.97;3.42;;;19.40;99.90;;;;;;5084674;28;20059;-74
2022/10/15 06:05:28;;;;;;;4.82;2.88;;;19.70;99.90;;;;;;5084435;28;20040;-71
2022/10/15 06:07:56;;;;;;;4.78;2.58;;;19.90;99.90;;;;;;5085715;28;20072;-72
2022/10/15 06:10:24;;;;;;;4.22;2.60;;;20.10;99.90;;;;;;5066998;28;20056;-71
2022/10/15 06:12:51;;;;;;;4.95;2.85;;;20.40;99.90;;;;;;5083805;28;20097;-73
2022/10/15 06:15:19;;;;;;;7.53;2.88;;;20.60;99.90;;;;;;5065987;28;20052;-71
2022/10/15 06:17:52;;;;;;;6.53;3.35;;;20.90;99.90;;;;;;5065478;28;20075;-72
2022/10/15 06:20:19;;;;;;;5.55;2.67;;;21.30;99.90;;;;;;5066266;28;20051;-73
2022/10/15 06:22:47;;;;;;;7.90;2.55;;;21.60;99.90;;;;;;5066545;28;20443;-72
2022/10/15 06:25:15;;;;;;;4.20;2.47;;;22.00;99.90;;;;;;5083497;28;20056;-71
2022/10/15 06:27:42;;;;;;;5.38;3.33;;;22.50;99.90;;;;;;5066738;28;20072;-70
2022/10/15 06:30:10;;;;;;;5.13;3.25;;;22.90;99.90;;;;;;5083378;28;20147;-72
2022/10/15 06:32:38;;;;;;;5.75;3.35;;;23.40;99.90;;;;;;5085280;28;20055;-75
2022/10/15 06:35:06;;;;;;;7.93;3.00;;;23.60;99.90;;;;;;5084249;28;20446;-72
2022/10/15 06:37:34;;;;;;;6.00;2.95;;;23.80;99.90;;;;;;5067591;28;20056;-71
2022/10/15 06:40:02;;;;;;;4.60;3.03;;;23.70;99.90;;;;;;5086157;28;20043;-74
2022/10/15 06:42:29;;;;;;;4.38;3.05;;;23.60;99.90;;;;;;5086914;28;20044;-76
2022/10/15 06:44:57;;;;;;;4.03;2.60;;;23.50;99.90;;;;;;5085453;28;20474;-71
2022/10/15 06:47:25;;;;;;;6.13;3.42;;;23.30;99.90;;;;;;5085280;28;20051;-73
2022/10/15 06:49:52;;;;;;;6.47;3.25;;;23.30;99.90;;;;;;5084504;28;20067;-72
2022/10/15 06:52:20;;;;;;;4.65;3.00;;;23.20;99.90;;;;;;5068447;28;20055;-70
2022/10/15 06:54:48;;;;;;;5.35;3.13;;;23.30;99.90;;;;;;5085006;28;20070;-72
2022/10/15 06:57:18;;;;;;;3.95;2.90;;;23.40;99.90;;;;;;5084913;28;20040;-71
2022/10/15 06:59:45;;;;;;;4.15;2.72;;;23.30;99.90;;;;;;5068116;28;20532;-70
2022/10/15 07:02:13;;;;;;;4.65;3.35;;;23.40;99.90;;;;;;5067552;28;20048;-73
2022/10/15 07:04:41;;;;;;;6.03;2.50;;;23.30;99.90;;;;;;5067847;28;20395;-71
2022/10/15 07:07:15;;;;;;;4.75;2.55;;;23.40;99.90;;;;;;5068091;28;20040;-76
2022/10/15 07:09:42;;;;;;;3.58;2.17;;;23.30;99.90;;;;;;5084343;28;20218;-73
2022/10/15 07:12:15;;;;;;;3.17;2.33;;;23.30;99.90;;;;;;5085663;28;20044;-73
2022/10/15 07:14:42;;;;;;;3.45;2.25;;;23.20;99.90;;;;;;5085796;28;20040;-71
2022/10/15 07:17:10;;;;;;;4.22;2.30;;;23.10;99.90;;;;;;5068350;28;20079;-70
2022/10/15 07:19:38;;;;;;;18.98;3.00;;;23.00;99.90;;;;;;5067433;28;20175;-71
2022/10/15 07:22:06;;;;;;;3.10;2.20;;;23.00;99.90;;;;;;5086827;28;20135;-71
2022/10/15 07:24:34;;;;;;;4.15;2.17;;;22.90;99.90;;;;;;5085320;28;20094;-71
2022/10/15 07:27:02;;;;;;;4.20;2.10;;;22.80;99.90;;;;;;5084638;28;20051;-73
2022/10/15 07:29:31;;;;;;;3.47;1.67;;;22.70;99.90;;;;;;5051736;28;20051;-72
2022/10/15 07:31:59;;;;;;;4.13;2.15;;;22.60;99.90;;;;;;5067393;28;20079;-70
2022/10/15 07:34:26;;;;;;;4.25;2.45;;;22.60;99.90;;;;;;5067715;28;20055;-73
2022/10/15 07:36:54;;;;;;;3.65;2.22;;;22.60;99.90;;;;;;5067866;28;20059;-74
2022/10/15 07:39:22;;;;;;;3.42;2.20;;;22.60;99.90;;;;;;5067935;28;20136;-72
2022/10/15 07:41:49;;;;;;;7.13;2.80;;;22.60;99.90;;;;;;5084491;28;20139;-74
2022/10/15 07:44:17;;;;;;;4.43;2.40;;;22.70;99.90;;;;;;5085938;28;20040;-71
2022/10/15 07:46:46;;;;;;;4.32;2.35;;;22.80;99.90;;;;;;5084089;28;20560;-72
2022/10/15 07:49:15;;;;;;;3.88;2.38;;;22.90;99.90;;;;;;5084081;28;20044;-73
2022/10/15 07:51:44;;;;;;;3.60;2.08;;;23.00;99.90;;;;;;5068204;28;20066;-70
2022/10/15 07:54:12;;;;;;;4.55;2.75;;;23.20;99.90;;;;;;5067132;28;20048;-72
2022/10/15 07:56:39;;;;;;;3.45;2.17;;;23.20;99.90;;;;;;5085608;28;20504;-75
2022/10/15 07:59:07;;;;;;;6.03;2.50;;;23.20;99.90;;;;;;5086065;28;20048;-73
2022/10/15 08:01:35;;;;;;;2.85;2.45;;;23.40;99.90;;;;;;5067942;28;20152;-73
2022/10/15 08:04:03;;;;;;;4.88;2.60;;;23.40;99.90;;;;;;5084488;28;20040;-72
2022/10/15 08:06:32;;;;;;;5.10;2.40;;;23.40;99.90;;;;;;5068056;28;20181;-72
2022/10/15 08:08:59;;;;;;;5.95;3.38;;;23.40;99.90;;;;;;5051027;28;20048;-71
2022/10/15 08:11:28;;;;;;;4.90;3.50;;;23.50;99.90;;;;;;5067213;28;20121;-70
2022/10/15 08:13:55;;;;;;;4.13;2.80;;;23.40;99.90;;;;;;5085721;28;20044;-73
2022/10/15 08:16:23;;;;;;;9.82;3.90;;;23.50;99.90;;;;;;5084715;28;20502;-70
2022/10/15 08:19:00;;;;;;;4.25;3.05;;;23.50;99.90;;;;;;5084480;28;20060;-72
2022/10/15 08:21:28;;;;;;;4.70;2.70;;;23.50;99.90;;;;;;5067745;28;20528;-72
2022/10/15 08:23:56;;;;;;;5.68;3.13;;;23.50;99.90;;;;;;5084022;28;20082;-74
2022/10/15 08:26:33;;;;;;;4.57;3.03;;;23.50;99.90;;;;;;5084356;28;20040;-77
2022/10/15 08:29:01;;;;;;;4.30;2.63;;;23.40;99.90;;;;;;5084423;28;20048;-72
2022/10/15 08:31:30;;;;;;;8.00;3.25;;;23.50;99.90;;;;;;5087389;28;20071;-74
2022/10/15 08:34:04;;;;;;;5.03;2.78;;;23.50;99.90;;;;;;5086902;28;20048;-73
2022/10/15 08:36:32;;;;;;;5.95;2.90;;;23.60;99.90;;;;;;5087917;28;20048;-72
2022/10/15 08:39:00;;;;;;;5.03;2.97;;;23.70;99.90;;;;;;5071328;28;20128;-72
2022/10/15 08:41:34;;;;;;;6.70;3.60;;;23.80;99.90;;;;;;5088242;28;20580;-70
2022/10/15 08:44:02;;;;;;;3.78;2.28;;;23.80;99.90;;;;;;5070511;28;20452;-70
2022/10/15 08:46:48;;;;;;;4.25;2.42;;;23.90;99.80;;;;;;5087085;28;20415;-71
2022/10/15 08:49:25;;;;;;;4.82;2.30;;;24.00;99.40;;;;;;5070441;28;20052;-73
2022/10/15 08:51:58;;;;;;;3.65;2.17;;;24.00;98.90;;;;;;5071307;28;20773;-70
2022/10/15 08:54:29;;;;;;;4.75;2.67;;;24.00;98.40;;;;;;5053883;28;20070;-70
2022/10/15 08:57:20;;;;;;;5.10;2.88;;;23.90;98.70;;;;;;5070630;28;20061;-72
2022/10/15 09:00:02;;;;;;;18.40;5.20;;;23.80;99.20;;;;;;5087668;28;20048;-71
2022/10/15 09:02:38;;;;;;;4.18;2.58;;;23.90;99.00;;;;;;5087548;28;20052;-70
2022/10/15 09:05:22;;;;;;;4.65;1.80;;;23.80;98.80;;;;;;5070232;28;20039;-69
2022/10/15 09:07:55;;;;;;;4.32;2.22;;;23.80;99.30;;;;;;5087246;28;20047;-70
2022/10/15 09:10:48;;;;;;;3.20;2.13;;;23.70;99.40;;;;;;5053365;28;20151;-70
2022/10/15 09:13:44;;;;;;;3.60;2.30;;;23.70;99.30;;;;;;5070199;28;20115;-70
2022/10/15 09:16:28;;;;;;;5.28;2.72;;;23.80;99.30;;;;;;5071875;28;20088;-72
2022/10/15 09:18:59;;;;;;;7.38;2.58;;;23.50;99.80;;;;;;5070730;28;20043;-70
2022/10/15 09:21:29;;;;;;;6.47;2.38;;;23.50;99.90;;;;;;5088096;28;20051;-71
2022/10/15 09:24:04;;;;;;;4.85;2.50;;;23.50;99.90;;;;;;5088094;28;20040;-70
2022/10/15 09:26:53;;;;;;;3.90;2.72;;;23.60;99.90;;;;;;5069779;28;20146;-72
2022/10/15 09:29:22;;;;;;;3.42;2.35;;;23.60;99.60;;;;;;5071019;28;20056;-69
2022/10/15 09:31:59;;;;;;;2.92;2.00;;;23.60;99.70;;;;;;5069899;28;20485;-71
2022/10/15 09:34:49;;;;;;;4.18;2.33;;;23.60;99.80;;;;;;5087144;28;20055;-75
2022/10/15 09:37:24;;;;;;;3.13;2.28;;;23.60;99.20;;;;;;5070041;28;20397;-72
2022/10/15 09:40:29;;;;;;;3.40;2.10;;;23.60;99.40;;;;;;5087191;28;20482;-74
2022/10/15 09:42:59;;;;;;;3.90;2.25;;;23.60;99.70;;;;;;5086552;28;20044;-75
2022/10/15 09:45:26;;;;;;;4.45;2.22;;;23.40;99.10;;;;;;5086086;28;20044;-71
2022/10/15 09:48:14;;;;;;;3.13;2.55;;;23.40;99.20;;;;;;5087634;28;20907;-70
2022/10/15 09:51:04;;;;;;;2.97;2.00;;;23.20;98.40;;;;;;5070005;28;20180;-71
2022/10/15 09:53:59;;;;;;;3.75;1.90;;;23.20;98.90;;;;;;5086404;28;20486;-70
2022/10/15 09:56:48;;;;;;;4.63;2.00;;;23.20;99.10;;;;;;5086316;28;20534;-73
2022/10/15 09:59:18;;;;;;;3.13;2.00;;;23.20;99.20;;;;;;5087518;28;20070;-72
2022/10/15 10:02:04;;;;;;;3.80;2.33;;;23.40;99.10;;;;;;5086994;28;20043;-72
2022/10/15 10:04:33;;;;;;;;;;;23.40;98.60;;;;;;5070218;28;20060;-73
2022/10/15 10:07:06;;;;;;;3.13;1.88;;;23.20;97.80;;;;;;5087927;28;19978;-72
2022/10/15 10:09:37;;;;;;;1.77;1.33;;;23.20;97.10;;;;;;5086387;28;20132;-72
2022/10/15 10:12:18;;;;;;;2.88;1.55;;;23.10;96.50;;;;;;5086784;28;20088;-73
2022/10/15 10:14:55;;;;;;;2.80;1.60;;;23.00;97.00;;;;;;5087016;28;20052;-73
2022/10/15 10:17:26;;;;;;;2.28;1.42;;;23.00;97.00;;;;;;5087751;28;20127;-75
2022/10/15 10:20:10;;;;;;;4.38;2.15;;;22.90;96.90;;;;;;5087737;28;20054;-73
2022/10/15 10:22:46;;;;;;;2.88;1.90;;;22.90;97.20;;;;;;5088053;28;20130;-71
2022/10/15 10:25:26;;;;;;;3.53;2.05;;;23.00;97.60;;;;;;5085741;28;20043;-75
2022/10/15 10:27:56;;;;;;;3.60;2.30;;;23.00;97.70;;;;;;5086428;28;20094;-73
2022/10/15 10:30:26;;;;;;;3.92;2.03;;;23.00;98.30;;;;;;5086573;28;20087;-73
2022/10/15 10:33:00;;;;;;;4.05;2.05;;;23.00;98.80;;;;;;5069462;28;20119;-74
2022/10/15 10:35:53;;;;;;;4.00;2.00;;;23.10;98.80;;;;;;5069021;28;20463;-73
2022/10/15 10:38:24;;;;;;;3.22;2.42;;;23.10;97.90;;;;;;5086475;28;20509;-71
2022/10/15 10:41:07;;;;;;;3.10;2.03;;;23.20;97.50;;;;;;5068909;28;20086;-72
2022/10/15 10:43:37;;;;;;;3.97;1.80;;;23.20;98.10;;;;;;5084885;28;20095;-73
2022/10/15 10:46:15;;;;;;;3.20;2.45;;;23.20;98.40;;;;;;5085053;28;20127;-72
2022/10/15 10:48:49;;;;;;;3.72;2.40;;;23.10;98.20;;;;;;5085256;28;20048;-72
2022/10/15 10:51:25;;;;;;;6.47;2.03;;;23.20;98.40;;;;;;5084836;28;20044;-72
2022/10/15 10:54:13;;;;;;;3.45;2.30;;;23.20;97.90;;;;;;5086068;28;20044;-71
2022/10/15 10:56:43;;;;;;;4.28;2.30;;;23.10;97.00;;;;;;5085434;28;20044;-72
2022/10/15 10:59:17;;;;;;;2.65;1.90;;;23.00;97.10;;;;;;5085741;28;20072;-72
2022/10/15 11:01:49;;;;;;;7.53;2.47;;;23.10;97.20;;;;;;5068681;28;20051;-72
2022/10/15 11:04:31;;;;;;;3.60;2.40;;;23.00;97.40;;;;;;5068851;28;20067;-72
2022/10/15 11:07:36;;;;;;;3.58;1.90;;;23.10;97.90;;;;;;5084954;28;20048;-76
2022/10/15 11:10:17;;;;;;;4.47;2.15;;;23.00;98.00;;;;;;5084053;28;20055;-73
2022/10/15 11:13:10;;;;;;;3.58;2.40;;;23.00;97.70;;;;;;5085166;28;20131;-72
2022/10/15 11:16:02;;;;;;;3.60;2.10;;;22.90;97.30;;;;;;5085537;28;20486;-72
2022/10/15 11:19:04;;;;;;;3.90;1.95;;;22.80;97.70;;;;;;5085675;28;20052;-72
2022/10/15 11:21:58;;;;;;;3.38;2.00;;;22.90;97.50;;;;;;5068499;28;20109;-73
2022/10/15 11:24:47;;;;;;;2.17;1.75;;;23.00;97.70;;;;;;5052003;28;20124;-72
2022/10/15 11:27:18;;;;;;;3.92;2.55;;;23.00;97.40;;;;;;5068029;28;20096;-73
2022/10/15 11:30:07;;;;;;;4.28;2.45;;;22.90;97.50;;;;;;5085721;28;20485;-71
2022/10/15 11:32:51;;;;;;;2.75;1.70;;;23.00;97.40;;;;;;5085741;28;20513;-73
2022/10/15 11:36:04;;;;;;;3.50;1.98;;;23.00;97.20;;;;;;5083538;28;20036;-72
2022/10/15 11:39:07;;;;;;;5.10;2.53;;;23.00;97.40;;;;;;5055164;28;20056;-71
2022/10/15 11:41:47;;;;;;;3.35;2.00;;;23.00;97.90;;;;;;5084335;28;20047;-72
2022/10/15 11:44:29;;;;;;;4.22;2.10;;;23.10;97.60;;;;;;5068261;28;20036;-74
2022/10/15 11:47:10;;;;;;;4.47;2.22;;;22.90;97.40;;;;;;5067013;28;20059;-72
2022/10/15 11:50:13;;;;;;;2.95;1.90;;;23.00;97.50;;;;;;5084649;28;20520;-72
2022/10/15 11:53:02;;;;;;;4.63;2.20;;;23.00;96.90;;;;;;5084966;28;20044;-75
2022/10/15 11:55:42;;;;;;;3.95;1.90;;;22.90;97.10;;;;;;5084724;28;20048;-75
2022/10/15 11:58:35;;;;;;;4.10;2.33;;;22.90;97.20;;;;;;5084779;28;20075;-73
2022/10/15 12:01:29;;;;;;;4.28;2.13;;;22.70;97.10;;;;;;5067981;28;20111;-75
2022/10/15 12:04:09;;;;;;;3.25;2.35;;;22.80;97.20;;;;;;5085307;28;20063;-72
2022/10/15 12:06:50;;;;;;;4.00;2.05;;;22.60;97.60;;;;;;5088927;28;20044;-71
2022/10/15 12:09:44;;;;;;;2.90;2.00;;;22.70;97.90;;;;;;5055226;28;20075;-72
2022/10/15 12:12:39;;;;;;;5.35;2.75;;;22.60;97.50;;;;;;5087740;28;20588;-70
2022/10/15 12:15:31;;;;;;;4.82;2.60;;;22.50;97.70;;;;;;5090163;28;20083;-74
2022/10/15 12:18:20;;;;;;;4.18;2.00;;;22.60;97.40;;;;;;5088587;28;20048;-73
2022/10/15 12:20:49;;;;;;;3.00;2.00;;;22.60;97.30;;;;;;5087732;28;20515;-73
2022/10/15 12:23:35;;;;;;;4.25;2.30;;;22.50;96.90;;;;;;5087886;28;20413;-73
2022/10/15 12:26:28;;;;;;;3.20;2.22;;;22.50;97.10;;;;;;5071588;28;20047;-71
2022/10/15 12:28:59;;;;;;;4.07;2.67;;;22.40;97.00;;;;;;5088179;28;20072;-71
2022/10/15 12:31:46;;;;;;;2.72;1.90;;;22.40;96.60;;;;;;5088475;28;20048;-69
2022/10/15 12:34:39;;;;;;;4.45;2.67;;;22.30;96.10;;;;;;5088362;28;20051;-73
2022/10/15 12:37:16;;;;;;;4.25;2.45;;;22.30;96.20;;;;;;5071795;28;20206;-72
2022/10/15 12:39:45;;;;;;;4.57;2.33;;;22.30;96.50;;;;;;5071782;28;20040;-69
2022/10/15 12:42:27;;;;;;;3.67;2.03;;;22.30;96.50;;;;;;5088053;28;20040;-72
2022/10/15 12:44:57;;;;;;;2.85;1.90;;;22.30;96.50;;;;;;5071834;28;20040;-72
2022/10/15 12:47:47;;;;;;;5.15;2.10;;;22.30;96.60;;;;;;5071457;28;20062;-72
2022/10/15 12:50:21;;;;;;;3.25;2.00;;;22.20;96.50;;;;;;5088636;28;20060;-73
2022/10/15 12:53:04;;;;;;;2.92;1.90;;;22.10;96.10;;;;;;5071631;28;20128;-74
2022/10/15 12:55:35;;;;;;;3.20;1.88;;;22.10;96.80;;;;;;5088019;28;20109;-71
2022/10/15 12:58:24;;;;;;;3.30;2.00;;;22.00;96.20;;;;;;5088541;28;20044;-75
2022/10/15 13:00:52;;;;;;;3.63;2.15;;;22.10;96.80;;;;;;5070284;28;20459;-72
2022/10/15 13:03:40;;;;;;;5.05;3.55;;;22.10;96.70;;;;;;5089310;28;20877;-72
2022/10/15 13:06:21;;;;;;;3.67;1.95;;;22.10;96.20;;;;;;5089006;28;20044;-78
2022/10/15 13:08:49;;;;;;;2.83;1.92;;;22.10;95.70;;;;;;5071338;28;20063;-72
2022/10/15 13:11:25;;;;;;;4.13;2.53;;;22.10;95.20;;;;;;5087693;28;20054;-71
2022/10/15 13:14:22;;;;;;;5.75;3.28;;;22.00;95.90;;;;;;5088927;28;20050;-73
2022/10/15 13:16:54;;;;;;;3.60;2.42;;;22.00;96.40;;;;;;5048221;28;20048;-71
2022/10/15 13:19:35;;;;;;;3.60;2.22;;;22.00;96.70;;;;;;5087317;28;20071;-75
2022/10/15 13:22:18;;;;;;;3.45;2.30;;;22.00;96.80;;;;;;5071044;28;20071;-73
2022/10/15 13:24:46;;;;;;;4.03;2.40;;;21.90;97.10;;;;;;5070676;28;20047;-72
2022/10/15 13:27:31;;;;;;;4.65;2.50;;;21.90;97.40;;;;;;5088984;28;20052;-74
2022/10/15 13:30:19;;;;;;;3.88;2.50;;;21.90;97.90;;;;;;5088380;28;20418;-72